Time;durP1;ratioP1;P1;durP2;ratioP2;P2;SDS_P1;SDS_P2;PMS_P1;PMS_P2;Temp;Humidity;BMP_temperature;BMP_pressure;BME280_temperature;BME280_humidity;BME280_pressure;Samples;Min_cycle;Max_cycle;Signal;HPM_P1;HPM_P2
2023/10/10 00:00:47;;;;;;;17.13;4.50;;;15.40;99.90;;;;;;5017761;28;20022;-84
2023/10/10 00:03:13;;;;;;;16.25;4.60;;;15.40;99.90;;;;;;5017963;28;20037;-85
2023/10/10 00:05:40;;;;;;;13.85;5.22;;;15.40;99.90;;;;;;5015314;28;20054;-85
2023/10/10 00:08:09;;;;;;;25.63;4.80;;;15.30;99.90;;;;;;5016772;28;20077;-84
2023/10/10 00:10:35;;;;;;;24.27;4.47;;;15.30;99.90;;;;;;5017220;28;20030;-84
2023/10/10 00:13:04;;;;;;;18.85;4.20;;;15.30;99.90;;;;;;5018324;28;20493;-85
2023/10/10 00:15:34;;;;;;;16.65;4.00;;;15.20;99.90;;;;;;5018727;28;20037;-85
2023/10/10 00:18:07;;;;;;;18.95;5.30;;;15.20;99.90;;;;;;5022828;28;20057;-84
2023/10/10 00:20:44;;;;;;;25.08;5.20;;;15.20;99.90;;;;;;5022381;28;20095;-84
2023/10/10 00:23:16;;;;;;;13.88;4.25;;;15.20;99.90;;;;;;5017631;28;20036;-85
2023/10/10 00:25:47;;;;;;;17.98;4.95;;;15.10;99.90;;;;;;5014869;28;20032;-84
2023/10/10 00:28:20;;;;;;;15.48;4.85;;;15.10;99.90;;;;;;5016319;28;20064;-84
2023/10/10 00:30:46;;;;;;;15.82;4.63;;;15.10;99.90;;;;;;5015582;28;20036;-84
2023/10/10 00:33:16;;;;;;;16.25;5.00;;;15.00;99.90;;;;;;5015994;28;20026;-84
2023/10/10 00:35:44;;;;;;;17.02;4.80;;;15.00;99.90;;;;;;5014590;28;20148;-84
2023/10/10 00:38:24;;;;;;;19.48;4.55;;;15.00;99.90;;;;;;5016317;28;20071;-84
2023/10/10 00:40:51;;;;;;;21.40;4.65;;;15.00;99.90;;;;;;5015361;28;20049;-84
2023/10/10 00:43:17;;;;;;;15.00;4.25;;;14.90;99.90;;;;;;5013701;28;20459;-84
2023/10/10 00:45:57;;;;;;;13.60;3.90;;;14.80;99.90;;;;;;5027651;28;20014;-84
2023/10/10 00:48:29;;;;;;;17.25;4.47;;;14.80;99.90;;;;;;5018244;28;20058;-85
2023/10/10 00:51:05;;;;;;;18.25;5.20;;;14.80;99.90;;;;;;5016936;28;20369;-85
2023/10/10 00:53:34;;;;;;;18.65;5.38;;;14.80;99.90;;;;;;5016742;28;20026;-84
2023/10/10 00:56:00;;;;;;;16.67;4.00;;;14.80;99.90;;;;;;5018055;28;20033;-84
2023/10/10 00:58:35;;;;;;;19.63;4.53;;;14.70;99.90;;;;;;5016729;28;20025;-85
2023/10/10 01:01:09;;;;;;;16.75;4.72;;;14.70;99.90;;;;;;5017169;28;20040;-84
2023/10/10 01:03:41;;;;;;;16.42;4.43;;;14.60;99.90;;;;;;5015186;28;20139;-84
2023/10/10 01:06:14;;;;;;;18.98;5.32;;;14.60;99.90;;;;;;5016416;28;20021;-84
2023/10/10 01:08:59;;;;;;;17.80;5.55;;;14.50;99.90;;;;;;5015454;28;20033;-84
2023/10/10 01:11:25;;;;;;;19.30;4.85;;;14.50;99.90;;;;;;5015386;28;20756;-84
2023/10/10 01:13:52;;;;;;;19.15;4.80;;;14.50;99.90;;;;;;5015398;28;20030;-84
2023/10/10 01:16:23;;;;;;;17.50;5.28;;;14.50;99.90;;;;;;5016353;28;20025;-84
2023/10/10 01:18:52;;;;;;;16.73;4.38;;;14.40;99.90;;;;;;5015957;28;20032;-84
2023/10/10 01:21:32;;;;;;;21.17;5.07;;;14.40;99.90;;;;;;5018157;28;20095;-85
2023/10/10 01:24:06;;;;;;;23.95;5.60;;;14.40;99.90;;;;;;5020523;28;20610;-85
2023/10/10 01:26:36;;;;;;;24.15;5.13;;;14.30;99.90;;;;;;5019430;28;20026;-84
2023/10/10 01:29:21;;;;;;;16.38;4.47;;;14.30;99.90;;;;;;5020470;28;20037;-84
2023/10/10 01:31:48;;;;;;;17.40;5.07;;;14.30;99.90;;;;;;5020780;28;20544;-84
2023/10/10 01:34:30;;;;;;;16.83;5.10;;;14.30;99.90;;;;;;5020915;28;20033;-84
2023/10/10 01:37:00;;;;;;;25.17;6.43;;;14.20;99.90;;;;;;5021605;28;20025;-85
2023/10/10 01:39:53;;;;;;;16.08;5.00;;;14.20;99.90;;;;;;5020788;28;20060;-85
2023/10/10 01:42:30;;;;;;;21.75;4.65;;;14.20;99.90;;;;;;5019388;28;20052;-84
2023/10/10 01:44:56;;;;;;;22.30;4.40;;;14.10;99.90;;;;;;5025601;28;20032;-84
2023/10/10 01:47:34;;;;;;;15.38;5.15;;;14.10;99.90;;;;;;5026727;28;20102;-84
2023/10/10 01:50:01;;;;;;;22.58;5.35;;;14.10;99.90;;;;;;5022981;28;20445;-84
2023/10/10 01:52:27;;;;;;;18.40;5.43;;;14.10;99.90;;;;;;5022508;28;20101;-85
2023/10/10 01:54:53;;;;;;;19.85;5.03;;;14.10;99.90;;;;;;5019815;28;20041;-84
2023/10/10 01:57:21;;;;;;;15.57;5.47;;;14.00;99.90;;;;;;5020969;28;20025;-85
2023/10/10 01:59:47;;;;;;;16.60;4.82;;;14.00;99.90;;;;;;5018982;28;20060;-83
2023/10/10 02:02:16;;;;;;;16.85;5.28;;;14.00;99.90;;;;;;5019816;28;20048;-83
2023/10/10 02:04:43;;;;;;;15.70;5.07;;;14.00;99.90;;;;;;5016365;28;20030;-84
2023/10/10 02:07:23;;;;;;;23.27;5.38;;;13.90;99.90;;;;;;4999398;28;20029;-84
2023/10/10 02:09:53;;;;;;;13.95;4.22;;;14.00;99.90;;;;;;5016885;28;20091;-84
2023/10/10 02:12:22;;;;;;;17.42;5.18;;;13.90;99.90;;;;;;5017170;28;20039;-84
2023/10/10 02:14:48;;;;;;;18.90;4.90;;;13.90;99.90;;;;;;5018285;28;20037;-84
2023/10/10 02:17:22;;;;;;;22.70;4.93;;;13.80;99.90;;;;;;5016441;28;20144;-84
2023/10/10 02:19:54;;;;;;;23.33;5.43;;;13.80;99.90;;;;;;5015663;28;20030;-84
2023/10/10 02:22:32;;;;;;;19.08;4.97;;;13.80;99.90;;;;;;5016640;28;20075;-84
2023/10/10 02:27:54;;;;;;;18.38;4.85;;;13.70;99.90;;;;;;5029110;28;20851;-83
2023/10/10 02:30:34;;;;;;;18.42;4.78;;;13.70;99.90;;;;;;5018123;28;20511;-84
2023/10/10 02:33:02;;;;;;;16.27;5.63;;;13.70;99.90;;;;;;5018558;28;20018;-85
2023/10/10 02:35:34;;;;;;;19.00;4.80;;;13.70;99.90;;;;;;5017818;28;20104;-84
2023/10/10 02:38:04;;;;;;;17.60;5.10;;;13.60;99.90;;;;;;5018641;28;20117;-84
2023/10/10 02:40:42;;;;;;;15.20;4.78;;;13.60;99.90;;;;;;5017845;28;20537;-83
2023/10/10 02:43:18;;;;;;;18.65;5.22;;;13.60;99.90;;;;;;5019231;28;20721;-84
2023/10/10 02:45:45;;;;;;;16.65;4.25;;;13.60;99.90;;;;;;5017810;28;21467;-84
2023/10/10 02:48:20;;;;;;;16.05;4.70;;;13.60;99.90;;;;;;5018786;28;20041;-84
2023/10/10 02:50:46;;;;;;;20.30;5.00;;;13.60;99.90;;;;;;5018257;28;20059;-84
2023/10/10 02:53:14;;;;;;;19.50;5.03;;;13.60;99.90;;;;;;5019157;28;20657;-84
2023/10/10 02:55:50;;;;;;;23.17;5.20;;;13.60;99.90;;;;;;5018176;28;20021;-84
2023/10/10 02:58:22;;;;;;;17.52;5.20;;;13.50;99.90;;;;;;5019697;28;20061;-83
2023/10/10 03:00:52;;;;;;;17.67;5.00;;;13.50;99.90;;;;;;5019499;28;20109;-83
2023/10/10 03:03:20;;;;;;;25.98;5.10;;;13.50;99.90;;;;;;5018338;28;20167;-84
2023/10/10 03:05:54;;;;;;;20.48;4.68;;;13.50;99.90;;;;;;5020332;28;21376;-84
2023/10/10 03:11:00;;;;;;;16.85;5.05;;;13.40;99.90;;;;;;5022697;28;20025;-84
2023/10/10 03:13:35;;;;;;;17.85;5.00;;;13.40;99.90;;;;;;5023208;28;20096;-85
2023/10/10 03:19:13;;;;;;;21.38;6.03;;;13.30;99.90;;;;;;5017639;28;20807;-85
2023/10/10 03:24:36;;;;;;;28.85;6.18;;;13.30;99.90;;;;;;5016663;28;20018;-83
2023/10/10 03:27:48;;;;;;;21.65;5.65;;;13.30;99.90;;;;;;5021126;28;20032;-84
2023/10/10 03:30:16;;;;;;;20.10;4.88;;;13.20;99.90;;;;;;5020207;28;20040;-84
2023/10/10 03:33:29;;;;;;;24.58;5.63;;;13.30;99.90;;;;;;5022436;28;20526;-84
2023/10/10 03:35:51;;;;;;;17.10;5.72;;;13.30;99.90;;;;;;5016202;28;20044;-84
2023/10/10 03:38:43;;;;;;;16.85;5.00;;;13.20;99.90;;;;;;5016941;28;20033;-84
2023/10/10 05:23:29;;;;;;;18.83;6.07;;;13.30;99.90;;;;;;5016828;28;20068;-84
2023/10/10 05:25:24;;;;;;;19.88;6.38;;;12.10;99.90;;;;;;5015839;28;20447;-84
2023/10/10 05:27:51;;;;;;;19.10;4.95;;;12.00;99.90;;;;;;5015925;28;20018;-83
2023/10/10 05:30:23;;;;;;;20.45;6.25;;;12.00;99.90;;;;;;5013812;28;20040;-83
2023/10/10 05:33:12;;;;;;;15.23;5.70;;;12.00;99.90;;;;;;5016279;28;20788;-84
2023/10/10 05:35:48;;;;;;;18.58;6.53;;;12.00;99.90;;;;;;5011821;28;20397;-83
2023/10/10 05:38:19;;;;;;;23.42;6.20;;;12.00;99.90;;;;;;5012034;28;20034;-84
2023/10/10 05:40:47;;;;;;;22.45;6.18;;;12.10;99.90;;;;;;5018367;28;20439;-84
2023/10/10 05:43:16;;;;;;;21.30;6.00;;;12.10;99.90;;;;;;5017170;28;20033;-83
2023/10/10 05:45:45;;;;;;;20.75;8.15;;;12.00;99.90;;;;;;5020685;28;20506;-83
2023/10/10 05:48:12;;;;;;;22.85;6.85;;;12.10;99.90;;;;;;5017286;28;20070;-84
2023/10/10 05:50:40;;;;;;;19.05;6.60;;;12.10;99.90;;;;;;5014728;28;20100;-83
2023/10/10 05:53:06;;;;;;;14.55;5.25;;;12.10;99.90;;;;;;5018967;28;20022;-83
2023/10/10 05:55:37;;;;;;;17.63;5.97;;;12.10;99.90;;;;;;5028098;28;20032;-83
2023/10/10 05:58:03;;;;;;;18.77;5.82;;;12.10;99.90;;;;;;5019083;28;20029;-84
2023/10/10 06:00:36;;;;;;;16.85;5.68;;;12.10;99.90;;;;;;5014725;28;20030;-83
2023/10/10 06:03:02;;;;;;;15.82;6.05;;;12.00;99.90;;;;;;5016965;28;20096;-83
2023/10/10 06:05:29;;;;;;;17.85;6.18;;;12.10;99.90;;;;;;5017889;28;20036;-83
2023/10/10 06:07:55;;;;;;;19.48;5.80;;;12.10;99.90;;;;;;5021025;28;20033;-83
2023/10/10 06:10:21;;;;;;;17.20;5.28;;;12.10;99.90;;;;;;5017010;28;20033;-83
2023/10/10 06:12:47;;;;;;;15.95;5.75;;;12.00;99.90;;;;;;5014418;28;20030;-84
2023/10/10 06:15:17;;;;;;;19.20;5.30;;;12.10;99.90;;;;;;5013716;28;20040;-83
2023/10/10 06:17:48;;;;;;;16.05;5.10;;;12.00;99.90;;;;;;5014571;28;20026;-83
2023/10/10 06:20:16;;;;;;;15.57;4.93;;;12.10;99.90;;;;;;5014707;28;20033;-83
2023/10/10 06:22:45;;;;;;;17.00;6.28;;;12.10;99.90;;;;;;5016711;28;20030;-84
2023/10/10 06:25:11;;;;;;;14.88;5.90;;;12.10;99.90;;;;;;5016262;28;20029;-83
2023/10/10 06:27:40;;;;;;;20.42;6.32;;;12.10;99.90;;;;;;5014835;28;20056;-83
2023/10/10 06:30:19;;;;;;;17.92;6.38;;;12.10;99.90;;;;;;5014812;28;20034;-84
2023/10/10 06:32:46;;;;;;;25.77;6.75;;;12.20;99.90;;;;;;5013077;28;20643;-83
2023/10/10 06:35:25;;;;;;;18.45;6.18;;;12.30;99.90;;;;;;5014085;28;20037;-83
2023/10/10 06:37:54;;;;;;;22.02;7.43;;;12.30;99.90;;;;;;5011967;28;20035;-84
2023/10/10 06:40:28;;;;;;;28.70;7.10;;;12.30;99.90;;;;;;5012193;28;20037;-83
2023/10/10 06:42:55;;;;;;;24.10;6.15;;;12.40;99.90;;;;;;5014496;28;20033;-83
2023/10/10 06:45:26;;;;;;;15.93;5.68;;;12.40;99.90;;;;;;5010845;28;20026;-83
2023/10/10 06:47:52;;;;;;;20.33;6.38;;;12.50;99.90;;;;;;5013105;28;20034;-84
2023/10/10 06:50:21;;;;;;;19.73;6.53;;;12.60;99.90;;;;;;5009270;28;20119;-82
2023/10/10 06:52:52;;;;;;;20.52;7.57;;;12.70;99.90;;;;;;5007101;28;20038;-82
2023/10/10 06:55:22;;;;;;;26.38;7.28;;;12.70;99.90;;;;;;5007163;28;20033;-83
2023/10/10 06:57:57;;;;;;;19.45;6.70;;;12.80;99.90;;;;;;5008047;28;20056;-83
2023/10/10 07:03:07;;;;;;;16.50;5.03;;;13.00;99.90;;;;;;5006908;28;20156;-84
2023/10/10 07:05:33;;;;;;;19.65;6.05;;;13.10;99.90;;;;;;5005969;28;20468;-84
2023/10/10 07:08:12;;;;;;;16.48;5.57;;;13.20;99.90;;;;;;5006681;28;20492;-83
2023/10/10 07:10:41;;;;;;;20.80;6.00;;;13.30;99.90;;;;;;5006330;28;20508;-84
2023/10/10 07:13:13;;;;;;;21.63;5.88;;;13.40;99.90;;;;;;5012543;28;20063;-89
2023/10/10 07:15:39;;;;;;;20.73;6.35;;;13.50;99.90;;;;;;5016344;28;20400;-84
2023/10/10 07:18:14;;;;;;;21.95;5.70;;;13.80;99.90;;;;;;5011389;28;20033;-84
2023/10/10 07:23:37;;;;;;;21.52;6.28;;;14.10;99.90;;;;;;5014385;28;20039;-84
2023/10/10 07:26:21;;;;;;;26.67;5.97;;;14.30;99.90;;;;;;5012283;28;20037;-84
2023/10/10 07:28:52;;;;;;;16.45;5.32;;;14.50;99.90;;;;;;5011728;28;20410;-85
2023/10/10 07:31:22;;;;;;;23.98;6.20;;;14.70;99.90;;;;;;5014468;28;20088;-84
2023/10/10 07:33:56;;;;;;;24.05;5.93;;;14.90;99.90;;;;;;5012056;28;20041;-84
2023/10/10 07:36:26;;;;;;;19.02;5.47;;;15.10;99.90;;;;;;5014774;28;20504;-84
2023/10/10 07:39:31;;;;;;;17.60;5.00;;;15.30;99.90;;;;;;5021225;28;20043;-84
2023/10/10 07:41:45;;;;;;;24.73;5.65;;;15.40;99.90;;;;;;5019027;28;21377;-84
2023/10/10 07:44:11;;;;;;;28.23;6.03;;;15.60;99.90;;;;;;5013492;28;20034;-84
2023/10/10 07:46:37;;;;;;;21.98;5.65;;;15.80;99.90;;;;;;5012656;28;20026;-85
2023/10/10 07:49:03;;;;;;;21.90;5.85;;;16.00;99.90;;;;;;5012898;28;20038;-84
2023/10/10 07:51:29;;;;;;;16.33;5.88;;;16.20;99.90;;;;;;5014420;28;20032;-85
2023/10/10 07:54:12;;;;;;;29.63;5.90;;;16.40;99.90;;;;;;5013796;28;20029;-84
2023/10/10 07:56:45;;;;;;;22.38;5.68;;;16.50;99.90;;;;;;5013281;28;20033;-84
2023/10/10 07:59:14;;;;;;;20.63;5.35;;;16.80;99.90;;;;;;5013210;28;20034;-84
2023/10/10 08:01:43;;;;;;;22.13;5.05;;;16.90;99.90;;;;;;5012470;28;21348;-85
2023/10/10 08:04:13;;;;;;;30.50;5.90;;;17.10;99.90;;;;;;5014447;28;20408;-85
2023/10/10 08:06:39;;;;;;;21.30;5.45;;;17.30;99.90;;;;;;5013854;28;20092;-85
2023/10/10 08:11:46;;;;;;;23.83;5.35;;;17.60;99.90;;;;;;5013964;28;20613;-85
2023/10/10 08:14:11;;;;;;;19.42;5.43;;;17.80;99.90;;;;;;5015270;28;20108;-84
2023/10/10 08:16:39;;;;;;;17.83;5.38;;;18.00;99.90;;;;;;5020642;28;21101;-85
2023/10/10 08:19:06;;;;;;;17.92;5.50;;;18.10;99.90;;;;;;5015936;28;20094;-85
2023/10/10 08:21:54;;;;;;;25.73;6.45;;;18.30;99.90;;;;;;5014014;28;20033;-84
2023/10/10 08:24:19;;;;;;;18.65;5.15;;;18.40;99.90;;;;;;5012523;28;20502;-84
2023/10/10 08:26:45;;;;;;;20.98;5.60;;;18.70;99.90;;;;;;5012484;28;20044;-87
2023/10/10 08:29:12;;;;;;;20.70;5.38;;;18.90;99.90;;;;;;4992398;28;20067;-86
2023/10/10 08:31:42;;;;;;;27.77;5.53;;;19.00;99.90;;;;;;5010685;28;20114;-87
2023/10/10 08:34:09;;;;;;;19.73;5.10;;;19.20;99.90;;;;;;5012279;28;20531;-87
2023/10/10 08:36:35;;;;;;;22.67;5.22;;;19.40;99.90;;;;;;5011778;28;20033;-87
2023/10/10 08:41:42;;;;;;;24.25;5.03;;;19.80;99.90;;;;;;5013192;28;20037;-86
2023/10/10 08:44:09;;;;;;;16.75;4.65;;;20.00;99.90;;;;;;5014606;28;20029;-86
2023/10/10 08:46:43;;;;;;;17.15;5.28;;;20.10;99.90;;;;;;5013744;28;20033;-86
2023/10/10 08:49:09;;;;;;;22.85;5.22;;;20.40;99.90;;;;;;5015395;28;20053;-87
2023/10/10 08:51:36;;;;;;;20.95;5.05;;;20.50;99.90;;;;;;5014112;28;20029;-87
2023/10/10 08:54:09;;;;;;;15.63;4.72;;;20.60;99.90;;;;;;5012726;28;20114;-86
2023/10/10 08:56:38;;;;;;;22.63;5.15;;;20.80;99.90;;;;;;5014628;28;20103;-87
2023/10/10 08:59:06;;;;;;;14.55;4.35;;;20.90;99.90;;;;;;5013954;28;20026;-86
2023/10/10 09:01:38;;;;;;;24.85;5.68;;;21.00;99.90;;;;;;5026925;28;20033;-86
2023/10/10 09:04:05;;;;;;;25.35;5.40;;;21.10;99.90;;;;;;5035536;28;20041;-86
2023/10/10 09:06:58;;;;;;;19.70;4.95;;;21.30;99.90;;;;;;5028981;28;20045;-86
2023/10/10 09:09:40;;;;;;;16.85;4.65;;;21.40;99.90;;;;;;5013168;28;20038;-86
2023/10/10 09:12:14;;;;;;;26.08;5.45;;;21.50;99.90;;;;;;5010821;28;20374;-87
2023/10/10 09:14:50;;;;;;;25.60;5.15;;;21.60;99.90;;;;;;5013012;28;20478;-87
2023/10/10 09:17:35;;;;;;;21.38;5.22;;;21.70;99.90;;;;;;5012475;28;20449;-87
2023/10/10 09:22:51;;;;;;;17.38;4.55;;;21.80;99.90;;;;;;5027789;28;20120;-86
2023/10/10 09:25:25;;;;;;;18.80;4.63;;;21.80;99.90;;;;;;5013763;28;20075;-85
2023/10/10 09:28:04;;;;;;;27.98;5.50;;;21.90;99.90;;;;;;5012962;28;20049;-86
2023/10/10 09:33:29;;;;;;;17.63;4.75;;;22.00;99.90;;;;;;4994579;28;20057;-86
2023/10/10 09:36:09;;;;;;;27.27;5.15;;;22.10;99.90;;;;;;5015937;28;20022;-86
2023/10/10 09:38:53;;;;;;;19.80;4.70;;;22.20;99.90;;;;;;5020651;28;20018;-87
2023/10/10 09:49:51;;;;;;;15.23;4.28;;;22.50;99.90;;;;;;5020974;28;20042;-82
2023/10/10 09:55:21;;;;;;;20.40;5.13;;;22.70;99.90;;;;;;5019947;28;20045;-80
2023/10/10 09:58:00;;;;;;;18.75;4.75;;;22.80;99.90;;;;;;5020471;28;20079;-77
2023/10/10 10:00:31;;;;;;;13.30;4.85;;;22.90;99.90;;;;;;5020147;28;20030;-80
2023/10/10 10:03:00;;;;;;;20.15;4.70;;;22.90;99.90;;;;;;5019852;28;20113;-80
2023/10/10 10:05:28;;;;;;;14.77;4.40;;;22.80;99.90;;;;;;5010938;28;20030;-80
2023/10/10 10:08:21;;;;;;;19.45;5.07;;;22.80;99.90;;;;;;5013501;28;20128;-80
2023/10/10 10:11:10;;;;;;;19.98;5.45;;;22.80;99.90;;;;;;5015384;28;20148;-80
2023/10/10 10:14:15;;;;;;;17.95;5.35;;;22.90;99.90;;;;;;5016234;28;20044;-78
2023/10/10 10:16:47;;;;;;;20.40;5.25;;;22.80;99.90;;;;;;5015701;28;20188;-79
2023/10/10 10:19:18;;;;;;;18.80;5.90;;;22.90;99.90;;;;;;5016525;28;20065;-78
2023/10/10 10:21:57;;;;;;;20.80;5.70;;;23.10;99.90;;;;;;5014948;28;20037;-80
2023/10/10 10:24:33;;;;;;;19.20;5.15;;;23.20;99.90;;;;;;5016008;28;20034;-79
2023/10/10 10:27:34;;;;;;;18.85;5.70;;;23.40;99.90;;;;;;5019141;28;20021;-79
2023/10/10 10:32:49;;;;;;;19.33;5.35;;;23.70;99.90;;;;;;5017644;28;20034;-75
2023/10/10 10:35:22;;;;;;;22.25;5.63;;;23.60;99.90;;;;;;5015909;28;20041;-74
2023/10/10 10:37:56;;;;;;;13.70;4.97;;;23.70;99.90;;;;;;5016833;28;20075;-75
2023/10/10 10:40:42;;;;;;;15.88;5.47;;;23.80;99.90;;;;;;5017927;28;20037;-76
2023/10/10 10:43:14;;;;;;;19.00;5.50;;;23.80;99.90;;;;;;5015735;28;20025;-76
2023/10/10 10:45:44;;;;;;;18.90;4.63;;;23.80;99.90;;;;;;5014326;28;20029;-76
2023/10/10 10:48:30;;;;;;;20.40;5.30;;;24.00;99.90;;;;;;5013357;28;20029;-75
2023/10/10 10:51:28;;;;;;;15.07;4.70;;;24.10;99.90;;;;;;5016026;28;20030;-75
2023/10/10 10:53:58;;;;;;;14.57;4.90;;;24.20;99.90;;;;;;5012428;28;20049;-74
2023/10/10 10:59:12;;;;;;;14.77;5.80;;;24.20;99.90;;;;;;5015365;28;20598;-75
2023/10/10 11:01:51;;;;;;;13.15;5.10;;;24.20;99.90;;;;;;5017593;28;20043;-77
2023/10/10 11:07:03;;;;;;;17.02;5.68;;;24.30;99.90;;;;;;5015087;28;20886;-76
2023/10/10 11:09:31;;;;;;;20.48;5.53;;;24.30;99.90;;;;;;5014705;28;20116;-76
2023/10/10 11:12:04;;;;;;;17.75;4.97;;;24.30;99.90;;;;;;5011968;28;20917;-76
2023/10/10 11:14:31;;;;;;;12.88;4.38;;;24.30;99.90;;;;;;5011032;28;20755;-75
2023/10/10 11:16:57;;;;;;;26.38;5.90;;;24.40;99.90;;;;;;5013508;28;20167;-74
2023/10/10 11:21:56;;;;;;;19.48;6.00;;;24.40;99.90;;;;;;5008829;28;20033;-84
2023/10/10 11:24:25;;;;;;;14.30;4.70;;;24.60;99.90;;;;;;5010654;28;20048;-75
2023/10/10 11:27:07;;;;;;;17.60;5.20;;;24.70;99.90;;;;;;5013573;28;20029;-76
2023/10/10 11:30:00;;;;;;;18.30;5.70;;;24.80;99.90;;;;;;5012093;28;20033;-78
2023/10/10 11:32:36;;;;;;;19.90;5.30;;;24.80;99.90;;;;;;5012861;28;20107;-75
2023/10/10 11:35:22;;;;;;;15.60;6.13;;;24.80;99.90;;;;;;5012715;28;20041;-75
2023/10/10 11:38:00;;;;;;;15.68;5.60;;;24.80;99.90;;;;;;5010878;28;20637;-75
2023/10/10 11:42:56;;;;;;;16.27;5.45;;;24.80;99.90;;;;;;5012466;28;20045;-75
2023/10/10 11:45:26;;;;;;;9.70;4.88;;;24.80;99.90;;;;;;5010654;28;20029;-75
2023/10/10 11:48:05;;;;;;;19.20;6.25;;;24.80;99.90;;;;;;5012659;28;20033;-75
2023/10/10 11:50:47;;;;;;;18.17;5.95;;;24.80;99.90;;;;;;5012218;28;20401;-75
2023/10/10 11:53:19;;;;;;;20.15;5.25;;;24.90;99.90;;;;;;5012593;28;20064;-75
2023/10/10 11:55:45;;;;;;;18.35;5.68;;;24.90;99.90;;;;;;5011177;28;20100;-75
2023/10/10 11:58:16;;;;;;;14.07;4.75;;;24.90;99.90;;;;;;5012782;28;20115;-74
2023/10/10 12:00:59;;;;;;;17.88;5.50;;;24.90;99.90;;;;;;5011773;28;20037;-74
2023/10/10 12:03:43;;;;;;;17.17;5.65;;;24.90;99.90;;;;;;5012689;28;20033;-74
2023/10/10 12:06:19;;;;;;;14.40;4.47;;;24.90;99.90;;;;;;5011148;28;20036;-75
2023/10/10 12:08:49;;;;;;;19.33;4.95;;;24.80;99.90;;;;;;5013528;28;20304;-75
2023/10/10 12:11:21;;;;;;;15.07;4.55;;;24.80;99.90;;;;;;5009946;28;20037;-75
2023/10/10 12:13:51;;;;;;;16.95;4.60;;;24.80;99.90;;;;;;5012682;28;20841;-80
2023/10/10 12:16:17;;;;;;;14.18;4.88;;;24.70;99.90;;;;;;5011458;28;20026;-79
2023/10/10 12:18:45;;;;;;;14.25;4.60;;;24.70;99.90;;;;;;5013131;28;20029;-78
2023/10/10 12:21:15;;;;;;;10.35;4.85;;;24.60;99.90;;;;;;5013359;28;20040;-78
2023/10/10 12:23:41;;;;;;;15.23;5.15;;;24.60;99.90;;;;;;5012812;28;20135;-78
2023/10/10 12:26:09;;;;;;;14.73;4.65;;;24.50;99.90;;;;;;5012703;28;20068;-78
2023/10/10 12:28:35;;;;;;;13.60;4.32;;;24.50;99.90;;;;;;5016070;28;21182;-77
2023/10/10 12:31:03;;;;;;;21.00;5.13;;;24.50;99.90;;;;;;5018542;28;20044;-78
2023/10/10 12:33:29;;;;;;;16.42;4.80;;;24.40;99.90;;;;;;5015761;28;20543;-78
2023/10/10 12:35:56;;;;;;;14.35;5.20;;;24.40;99.90;;;;;;5016790;28;20029;-79
2023/10/10 12:38:22;;;;;;;19.25;4.50;;;24.40;99.90;;;;;;5021806;28;20025;-78
2023/10/10 12:40:52;;;;;;;15.10;4.25;;;24.40;99.90;;;;;;5020058;28;20116;-77
2023/10/10 12:43:24;;;;;;;14.48;4.78;;;24.30;99.90;;;;;;5014139;28;20021;-78
2023/10/10 12:45:54;;;;;;;19.17;4.82;;;24.30;99.90;;;;;;5015362;28;20129;-77
2023/10/10 12:48:23;;;;;;;11.90;3.97;;;24.30;99.90;;;;;;5014704;28;20038;-78
2023/10/10 12:50:52;;;;;;;16.95;4.38;;;24.30;99.90;;;;;;5013731;28;20037;-78
2023/10/10 12:53:19;;;;;;;16.73;4.22;;;24.30;99.90;;;;;;5013726;28;20642;-78
2023/10/10 12:56:00;;;;;;;16.00;4.72;;;24.20;99.90;;;;;;5012936;28;20641;-79
2023/10/10 12:58:27;;;;;;;13.88;4.57;;;24.10;99.90;;;;;;5012790;28;20455;-77
2023/10/10 13:00:53;;;;;;;17.38;4.57;;;24.10;99.90;;;;;;5010533;28;20026;-79
2023/10/10 13:03:22;;;;;;;16.95;4.97;;;24.10;99.90;;;;;;5011849;28;20034;-78
2023/10/10 13:05:50;;;;;;;12.68;4.78;;;24.10;99.90;;;;;;5012163;28;20708;-78
2023/10/10 13:08:18;;;;;;;13.25;4.68;;;24.10;99.90;;;;;;5013358;28;20030;-78
2023/10/10 13:10:44;;;;;;;11.32;4.40;;;24.20;99.90;;;;;;5011905;28;20018;-77
2023/10/10 13:13:10;;;;;;;19.73;4.35;;;24.30;99.90;;;;;;5015607;28;20033;-79
2023/10/10 13:15:50;;;;;;;18.77;5.13;;;24.20;99.90;;;;;;5014595;28;20377;-78
2023/10/10 13:18:24;;;;;;;14.65;4.90;;;24.20;99.90;;;;;;5018740;28;20076;-78
2023/10/10 13:20:50;;;;;;;12.52;4.93;;;24.30;99.90;;;;;;5020386;28;20144;-79
2023/10/10 13:23:19;;;;;;;14.88;4.03;;;24.30;99.90;;;;;;5016630;28;20413;-79
2023/10/10 13:25:48;;;;;;;21.02;4.85;;;24.40;99.90;;;;;;5016459;28;20753;-80
2023/10/10 13:28:17;;;;;;;19.65;5.20;;;24.50;99.90;;;;;;5016942;28;20090;-78
2023/10/10 13:30:46;;;;;;;26.27;6.18;;;24.60;99.90;;;;;;5018021;28;20021;-74
2023/10/10 13:33:13;;;;;;;17.05;4.40;;;24.70;99.90;;;;;;5014693;28;20024;-77
2023/10/10 13:35:38;;;;;;;16.67;4.75;;;24.70;99.90;;;;;;5015357;28;20037;-76
2023/10/10 13:38:06;;;;;;;22.15;5.13;;;24.70;99.90;;;;;;5015343;28;20087;-77
2023/10/10 13:40:37;;;;;;;16.13;4.22;;;24.60;99.90;;;;;;5011457;28;20091;-76
2023/10/10 13:43:08;;;;;;;17.15;5.00;;;24.60;99.90;;;;;;5014865;28;20784;-76
2023/10/10 13:45:41;;;;;;;19.70;4.97;;;24.60;99.90;;;;;;5015554;28;20053;-76
2023/10/10 13:48:13;;;;;;;20.90;4.82;;;24.60;99.90;;;;;;5009970;28;20026;-77
2023/10/10 13:50:42;;;;;;;19.98;4.85;;;24.60;99.90;;;;;;5014697;28;20042;-78
2023/10/10 13:53:12;;;;;;;23.30;4.97;;;24.60;99.90;;;;;;5014829;28;20126;-76
2023/10/10 13:55:41;;;;;;;21.60;5.05;;;24.70;99.90;;;;;;5014445;28;20026;-77
2023/10/10 13:58:10;;;;;;;21.67;5.13;;;24.70;99.90;;;;;;5013496;28;20041;-77
2023/10/10 14:00:37;;;;;;;17.88;4.43;;;24.60;99.90;;;;;;5012690;28;20905;-76
2023/10/10 14:03:04;;;;;;;21.40;4.47;;;24.50;99.90;;;;;;5016533;28;20037;-78
2023/10/10 14:05:34;;;;;;;19.90;4.72;;;24.30;99.90;;;;;;5013818;28;20077;-77
2023/10/10 14:08:09;;;;;;;16.98;4.63;;;24.10;99.90;;;;;;5013402;28;20076;-77
2023/10/10 14:10:37;;;;;;;20.33;5.22;;;24.00;99.90;;;;;;5014947;28;20038;-76
2023/10/10 14:13:18;;;;;;;23.27;5.18;;;23.80;99.90;;;;;;5009889;28;20034;-77
2023/10/10 14:15:54;;;;;;;21.83;5.00;;;23.60;99.90;;;;;;5013211;28;20453;-76
2023/10/10 14:18:52;;;;;;;31.02;5.20;;;23.50;99.90;;;;;;5012750;28;21147;-77
2023/10/10 14:21:24;;;;;;;17.08;5.55;;;23.40;99.90;;;;;;4993142;28;20106;-75
2023/10/10 14:24:13;;;;;;;26.80;5.20;;;23.30;99.90;;;;;;5012111;28;20064;-75
2023/10/10 14:26:43;;;;;;;26.73;5.57;;;23.20;99.90;;;;;;5005586;28;20079;-76
2023/10/10 14:29:12;;;;;;;15.30;4.90;;;23.20;99.90;;;;;;5007001;28;20038;-76
2023/10/10 14:31:45;;;;;;;19.63;5.20;;;23.30;99.90;;;;;;5009614;28;20579;-75
2023/10/10 14:34:24;;;;;;;20.63;5.03;;;23.30;99.90;;;;;;5008841;28;20496;-76
2023/10/10 14:36:51;;;;;;;32.33;5.93;;;23.30;99.90;;;;;;5007972;28;20033;-75
2023/10/10 14:39:36;;;;;;;20.15;5.28;;;23.30;99.90;;;;;;5007955;28;20030;-76
2023/10/10 14:42:02;;;;;;;19.98;4.55;;;23.30;99.90;;;;;;5010731;28;20037;-75
2023/10/10 14:44:29;;;;;;;22.73;4.80;;;23.30;99.90;;;;;;5008834;28;20029;-75
2023/10/10 14:46:55;;;;;;;21.10;4.57;;;23.30;99.90;;;;;;5007368;28;20033;-76
2023/10/10 14:49:31;;;;;;;24.30;5.15;;;23.20;99.90;;;;;;5009515;28;20034;-75
2023/10/10 14:52:03;;;;;;;24.95;5.68;;;23.20;99.90;;;;;;5011624;28;20030;-75
2023/10/10 14:54:30;;;;;;;20.13;4.75;;;23.20;99.90;;;;;;5009961;28;21785;-75
2023/10/10 14:56:56;;;;;;;25.20;5.72;;;23.10;99.90;;;;;;5010255;28;20121;-75
2023/10/10 14:59:31;;;;;;;24.45;4.75;;;23.00;99.90;;;;;;5012565;28;20026;-75
2023/10/10 15:01:59;;;;;;;24.38;5.15;;;22.90;99.90;;;;;;5008607;28;20044;-76
2023/10/10 15:04:28;;;;;;;24.67;5.20;;;22.80;99.90;;;;;;5008252;28;20029;-76
2023/10/10 15:06:54;;;;;;;22.48;5.38;;;22.70;99.90;;;;;;5006897;28;20056;-75
2023/10/10 15:09:23;;;;;;;18.77;4.00;;;22.60;99.90;;;;;;5009966;28;20036;-75
2023/10/10 15:11:50;;;;;;;24.33;5.78;;;22.50;99.90;;;;;;5009847;28;20037;-76
2023/10/10 15:14:19;;;;;;;21.48;4.68;;;22.50;99.90;;;;;;5009598;28;20068;-75
2023/10/10 15:16:47;;;;;;;23.95;4.88;;;22.30;99.90;;;;;;5011709;28;20021;-81
2023/10/10 15:19:14;;;;;;;19.13;4.65;;;22.20;99.90;;;;;;5013892;28;20127;-84
2023/10/10 15:21:40;;;;;;;22.00;5.60;;;22.10;99.90;;;;;;5012211;28;20104;-85
2023/10/10 15:24:12;;;;;;;23.20;5.32;;;22.00;99.90;;;;;;5012585;28;21435;-84
2023/10/10 15:26:38;;;;;;;29.20;5.97;;;21.90;99.90;;;;;;5014108;28;20132;-84
2023/10/10 15:29:04;;;;;;;20.17;4.85;;;21.80;99.90;;;;;;5012749;28;20509;-86
2023/10/10 15:31:31;;;;;;;23.08;4.53;;;21.70;99.90;;;;;;5012218;28;20025;-84
2023/10/10 15:33:58;;;;;;;18.63;5.43;;;21.60;99.90;;;;;;5010131;28;20048;-85